Time;durP1;ratioP1;P1;durP2;ratioP2;P2;SDS_P1;SDS_P2;PMS_P1;PMS_P2;Temp;Humidity;BMP_temperature;BMP_pressure;BME280_temperature;BME280_humidity;BME280_pressure;Samples;Min_cycle;Max_cycle;Signal;HPM_P1;HPM_P2
2022/02/01 02:06:33;;;;;;;;;;;;;;;;;;;;;
2022/02/01 02:37:27;;;;;;;;;;;;;;;;;;;;;
2022/02/01 03:04:50;;;;;;;;;;;;;;;;;;;;;
2022/02/01 03:08:24;;;;;;;;;;;;;;;;;;;;;
2022/02/01 03:32:51;;;;;;;;;;;;;;;;;;;;;
2022/02/01 04:03:40;;;;;;;;;;;;;;;;;;;;;
2022/02/01 04:06:31;;;;;;;1.10;0.70;;;23.10;53.00;;;;;;6300914;22;20156;-88
2022/02/01 04:09:17;;;;;;;;;;;;;;;;;;;;;
2022/02/01 04:11:46;;;;;;;0.80;0.60;;;22.80;53.40;;;;;;6300578;22;20458;-87
2022/02/01 04:23:43;;;;;;;;;;;;;;;;;;;;;
2022/02/01 04:29:31;;;;;;;;;;;;;;;;;;;;;
2022/02/01 04:32:56;;;;;;;;;;;;;;;;;;;;;
2022/02/01 04:35:44;;;;;;;1.13;0.70;;;22.40;54.00;;;;;;6206456;23;20416;-87
2022/02/01 04:38:56;;;;;;;1.20;0.70;;;22.40;54.00;;;;;;6181087;23;20482;-88
2022/02/01 04:41:33;;;;;;;0.87;0.60;;;22.40;54.10;;;;;;6201863;23;20397;-87
2022/02/01 04:44:17;;;;;;;1.00;0.70;;;22.30;54.00;;;;;;6208235;23;20350;-88
2022/02/01 04:51:19;;;;;;;;;;;;;;;;;;;;;
2022/02/01 05:00:40;;;;;;;0.97;0.70;;;22.20;54.10;;;;;;6116601;23;20360;-87
2022/02/01 05:29:56;;;;;;;1.40;0.70;;;22.20;54.30;;;;;;6171313;23;20360;-86
2022/02/01 05:32:49;;;;;;;0.90;0.70;;;22.20;54.30;;;;;;6177002;22;20372;-86
2022/02/01 05:38:39;;;;;;;1.00;0.70;;;22.20;54.30;;;;;;6296251;22;20372;-86
2022/02/01 05:42:04;;;;;;;;;;;;;;;;;;;;;
2022/02/01 05:44:49;;;;;;;2.13;0.80;;;22.30;54.30;;;;;;6285432;22;20375;-86
2022/02/01 05:53:49;;;;;;;1.00;0.80;;;22.30;54.20;;;;;;6269618;22;20370;-89
2022/02/01 06:29:30;;;;;;;;;;;;;;;;;;;;;
2022/02/01 06:49:09;;;;;;;;;;;;;;;;;;;;;
2022/02/01 08:05:33;;;;;;;;;;;;;;;;;;;;;
2022/02/01 10:47:31;;;;;;;;;;;;;;;;;;;;;
2022/02/01 16:06:47;;;;;;;;;;;;;;;;;;;;;
2022/02/01 16:19:15;;;;;;;2.03;1.10;;;22.60;54.10;;;;;;6243047;23;20368;-87
2022/02/01 16:22:20;;;;;;;2.90;1.57;;;22.60;54.10;;;;;;6262726;23;20442;-87
2022/02/01 16:25:13;;;;;;;2.37;1.70;;;22.60;54.10;;;;;;6115645;23;20393;-87
2022/02/01 16:28:16;;;;;;;;;;;;;;;;;;;;;
2022/02/01 16:31:08;;;;;;;1.70;1.30;;;22.70;54.20;;;;;;6258833;23;20684;-86
2022/02/01 16:35:01;;;;;;;1.77;1.07;;;22.70;54.20;;;;;;6262551;23;20369;-87
2022/02/01 16:54:53;;;;;;;;;;;;;;;;;;;;;
2022/02/01 16:58:15;;;;;;;;;;;;;;;;;;;;;
2022/02/01 17:01:47;;;;;;;1.80;1.00;;;22.80;55.00;;;;;;6056846;23;20376;-87
2022/02/01 17:32:18;;;;;;;;;;;;;;;;;;;;;
2022/02/01 17:41:28;;;;;;;;;;;;;;;;;;;;;
2022/02/01 17:44:07;;;;;;;1.80;1.23;;;23.10;54.50;;;;;;5863414;24;20382;-87
2022/02/01 17:46:46;;;;;;;2.90;1.40;;;23.20;54.50;;;;;;5841944;24;20381;-87
2022/02/01 17:49:21;;;;;;;1.60;1.20;;;23.20;54.50;;;;;;5841468;24;20427;-87
2022/02/01 17:54:40;;;;;;;2.90;1.60;;;23.20;54.40;;;;;;5973755;24;20385;-87
2022/02/01 17:57:15;;;;;;;3.07;1.70;;;23.30;54.40;;;;;;5998983;24;20408;-87
2022/02/01 17:59:51;;;;;;;1.77;1.30;;;23.30;54.40;;;;;;6013699;23;20385;-87
2022/02/01 18:02:29;;;;;;;4.10;2.13;;;23.30;54.40;;;;;;6141244;23;20443;-88
2022/02/01 18:05:19;;;;;;;2.20;1.60;;;23.30;54.30;;;;;;6141556;23;20808;-88
2022/02/01 18:08:26;;;;;;;;;;;;;;;;;;;;;
2022/02/01 18:11:14;;;;;;;1.40;1.20;;;23.30;54.30;;;;;;6142540;23;20449;-87
2022/02/01 18:18:02;;;;;;;;;;;;;;;;;;;;;
2022/02/01 18:21:03;;;;;;;;;;;;;;;;;;;;;
2022/02/01 18:26:53;;;;;;;4.43;1.27;;;23.40;54.40;;;;;;6218527;23;20382;-89
2022/02/01 18:30:00;;;;;;;;;;;;;;;;;;;;;
2022/02/01 18:36:29;;;;;;;;;;;;;;;;;;;;;
2022/02/01 18:39:31;;;;;;;1.47;1.03;;;23.40;54.30;;;;;;6269382;23;20409;-85
2022/02/01 19:29:25;;;;;;;1.50;1.10;;;23.50;54.10;;;;;;6264453;22;20448;-86
2022/02/01 19:55:56;;;;;;;3.50;1.00;;;23.40;54.20;;;;;;5999331;23;20485;-88
2022/02/01 19:58:42;;;;;;;1.47;1.30;;;23.30;54.20;;;;;;5998268;24;20388;-88
2022/02/01 20:01:12;;;;;;;2.13;1.13;;;23.30;54.20;;;;;;5998636;24;20403;-88
2022/02/01 20:04:12;;;;;;;1.67;1.03;;;23.30;54.20;;;;;;6021568;23;20389;-88
2022/02/01 20:06:59;;;;;;;1.80;1.10;;;23.40;54.20;;;;;;6003194;23;20388;-85
2022/02/01 20:10:09;;;;;;;1.13;0.90;;;23.40;54.30;;;;;;6053800;23;20447;-85
2022/02/01 20:12:46;;;;;;;1.50;1.00;;;23.30;54.20;;;;;;6056828;23;20423;-85
2022/02/01 20:15:23;;;;;;;2.03;1.20;;;23.40;54.20;;;;;;6094406;23;20379;-85
2022/02/01 20:18:19;;;;;;;1.67;1.23;;;23.30;54.20;;;;;;6149455;23;20394;-84
2022/02/01 20:21:04;;;;;;;1.83;1.10;;;23.30;54.20;;;;;;6125908;23;20391;-85
2022/02/01 20:27:25;;;;;;;1.23;0.80;;;23.40;54.20;;;;;;6265625;22;20388;-83
2022/02/01 20:30:03;;;;;;;1.83;0.93;;;23.40;54.20;;;;;;6238936;23;20385;-84
2022/02/01 20:32:48;;;;;;;;;;;;;;;;;;;;;
2022/02/01 20:36:18;;;;;;;;;;;;;;;;;;;;;
2022/02/01 20:38:51;;;;;;;2.07;1.00;;;23.40;54.20;;;;;;6261038;23;20369;-84
2022/02/01 20:45:23;;;;;;;;;;;;;;;;;;;;;
2022/02/01 20:48:12;;;;;;;;;;;;;;;;;;;;;
2022/02/01 20:50:39;;;;;;;1.57;0.90;;;23.40;54.20;;;;;;6264349;23;20714;-88
2022/02/01 20:53:09;;;;;;;1.70;1.20;;;23.40;54.20;;;;;;6237927;23;20395;-87
2022/02/01 20:55:38;;;;;;;1.43;0.93;;;23.40;54.20;;;;;;6237854;23;20400;-88
2022/02/01 20:58:28;;;;;;;1.40;0.90;;;23.40;54.30;;;;;;6236699;23;20377;-88
2022/02/01 21:08:40;;;;;;;1.40;0.97;;;23.40;54.20;;;;;;6112806;23;20443;-87
2022/02/01 21:11:09;;;;;;;2.10;1.00;;;23.40;54.30;;;;;;6112119;23;20483;-86
2022/02/01 21:13:41;;;;;;;2.10;1.13;;;23.30;54.20;;;;;;6088041;23;20378;-87
2022/02/01 21:16:12;;;;;;;2.70;1.07;;;23.30;54.20;;;;;;6088172;23;20406;-87
2022/02/01 21:21:39;;;;;;;;;;;;;;;;;;;;;
2022/02/01 21:24:13;;;;;;;2.00;1.30;;;23.30;54.20;;;;;;6112044;23;20370;-87
2022/02/01 21:26:46;;;;;;;1.63;1.03;;;23.40;54.30;;;;;;6111609;23;20419;-87
2022/02/01 21:29:18;;;;;;;1.10;1.00;;;23.30;54.20;;;;;;6089034;23;20390;-87
2022/02/01 21:31:47;;;;;;;2.20;1.00;;;23.30;54.20;;;;;;6087848;23;20469;-88
2022/02/01 21:34:14;;;;;;;1.43;1.00;;;23.40;54.30;;;;;;6143091;23;20405;-87
2022/02/01 21:36:46;;;;;;;1.57;0.90;;;23.30;54.20;;;;;;6233052;23;20374;-88
2022/02/01 21:39:26;;;;;;;1.33;0.90;;;23.40;54.30;;;;;;6232942;23;20355;-87
2022/02/01 21:42:02;;;;;;;1.80;1.27;;;23.40;54.30;;;;;;6208563;23;20378;-87
2022/02/01 21:44:28;;;;;;;1.43;0.90;;;23.40;54.30;;;;;;6207569;23;20378;-87
2022/02/01 21:46:56;;;;;;;1.47;1.27;;;23.40;54.30;;;;;;6208853;23;20386;-87
2022/02/01 21:49:28;;;;;;;1.20;1.03;;;23.40;54.20;;;;;;6208300;23;20405;-87
2022/02/01 21:51:58;;;;;;;1.33;0.93;;;23.40;54.20;;;;;;6209387;23;20908;-88
2022/02/01 22:02:15;;;;;;;3.00;0.90;;;23.40;54.30;;;;;;6091250;23;20398;-84
2022/02/01 22:05:08;;;;;;;2.00;0.97;;;23.30;54.20;;;;;;6087267;23;20388;-84
2022/02/01 22:10:38;;;;;;;;;;;;;;;;;;;;;
2022/02/01 22:13:17;;;;;;;1.20;0.90;;;23.40;54.30;;;;;;6236520;23;20347;-84
2022/02/01 22:15:51;;;;;;;1.60;1.10;;;23.40;54.30;;;;;;6208418;23;20461;-83
2022/02/01 22:18:49;;;;;;;1.47;1.20;;;23.40;54.30;;;;;;6235441;23;20338;-87
2022/02/01 22:21:18;;;;;;;1.50;1.20;;;23.40;54.20;;;;;;6208070;23;20441;-87
2022/02/01 22:24:08;;;;;;;1.50;1.00;;;23.40;54.20;;;;;;6209152;23;20378;-87
2022/02/01 22:26:38;;;;;;;1.43;0.90;;;23.40;54.30;;;;;;6208456;23;20433;-88
2022/02/01 22:29:22;;;;;;;1.40;0.90;;;23.40;54.20;;;;;;6263338;23;20360;-88
2022/02/01 22:31:51;;;;;;;1.10;0.80;;;23.40;54.20;;;;;;6237381;23;20440;-87
2022/02/01 22:34:24;;;;;;;2.23;1.17;;;23.40;54.20;;;;;;6237627;23;20385;-87
2022/02/01 22:36:53;;;;;;;1.20;0.90;;;23.40;54.20;;;;;;6238088;23;20874;-87
2022/02/01 22:39:19;;;;;;;1.20;0.90;;;23.40;54.20;;;;;;6237622;23;20930;-88
2022/02/01 22:41:45;;;;;;;1.00;0.77;;;23.40;54.30;;;;;;6263833;23;20377;-88
2022/02/01 22:44:11;;;;;;;1.30;0.90;;;23.40;54.20;;;;;;6240084;23;20158;-87
2022/02/01 22:46:42;;;;;;;1.00;0.80;;;23.40;54.20;;;;;;6239578;23;20407;-85
2022/02/01 22:49:43;;;;;;;2.40;1.00;;;23.40;54.20;;;;;;6239894;23;20381;-85
2022/02/01 22:52:13;;;;;;;1.07;0.83;;;23.40;54.20;;;;;;6215209;23;20412;-85
2022/02/01 22:58:15;;;;;;;1.20;0.87;;;23.40;54.20;;;;;;6264087;23;20376;-86
2022/02/01 23:00:55;;;;;;;1.47;1.20;;;23.40;54.20;;;;;;6266544;23;20373;-85
2022/02/01 23:03:27;;;;;;;1.47;1.00;;;23.40;54.30;;;;;;6265973;23;20410;-85
2022/02/01 23:06:04;;;;;;;1.60;0.80;;;23.40;54.30;;;;;;6266117;23;20373;-85
2022/02/01 23:19:35;;;;;;;1.00;0.87;;;23.30;54.20;;;;;;6267146;23;20360;-85
2022/02/01 23:22:11;;;;;;;1.40;1.03;;;23.30;54.30;;;;;;6240027;23;20388;-87
2022/02/01 23:24:37;;;;;;;2.10;1.37;;;23.40;54.30;;;;;;6238030;23;20373;-87
2022/02/01 23:27:08;;;;;;;1.13;0.93;;;23.40;54.30;;;;;;6233085;23;20433;-87
2022/02/01 23:29:39;;;;;;;1.80;1.50;;;23.40;54.20;;;;;;6232663;23;20378;-87
2022/02/01 23:32:13;;;;;;;3.70;0.90;;;23.40;54.30;;;;;;6231835;23;20474;-88
2022/02/01 23:48:33;;;;;;;1.73;1.07;;;23.40;54.20;;;;;;6202613;23;20406;-87
2022/02/01 23:51:02;;;;;;;2.70;1.20;;;23.40;54.20;;;;;;6153684;23;20423;-87
2022/02/01 23:53:31;;;;;;;1.57;0.80;;;23.40;54.20;;;;;;6178135;23;20403;-87
2022/02/01 23:56:12;;;;;;;1.23;1.07;;;23.40;54.20;;;;;;6177260;23;20398;-86
2022/02/01 23:58:47;;;;;;;2.00;1.17;;;23.30;54.10;;;;;;6177580;23;20375;-86
